createdAt,value
2019-04-14T00:02:27.225Z,34.40
2019-04-14T00:05:08.277Z,37.22
2019-04-14T00:07:41.103Z,35.00
2019-04-14T00:10:16.052Z,37.50
2019-04-14T00:12:51.439Z,35.17
2019-04-14T00:15:47.051Z,33.83
2019-04-14T00:18:35.875Z,33.57
2019-04-14T00:21:09.038Z,33.73
2019-04-14T00:23:45.602Z,33.93
2019-04-14T00:26:31.562Z,37.00
2019-04-14T00:29:08.865Z,34.63
2019-04-14T00:32:09.435Z,32.97
2019-04-14T00:35:04.414Z,33.70
2019-04-14T00:38:01.232Z,36.40
2019-04-14T00:41:09.699Z,36.72
2019-04-14T00:43:50.914Z,34.77
2019-04-14T00:46:49.598Z,36.83
2019-04-14T00:49:24.716Z,34.70
2019-04-14T00:51:59.307Z,34.97
2019-04-14T00:54:34.427Z,36.03
2019-04-14T00:57:07.353Z,37.33
2019-04-14T00:59:42.763Z,35.90
2019-04-14T01:02:18.911Z,36.67
2019-04-14T01:04:53.391Z,38.45
2019-04-14T01:07:41.299Z,37.38
2019-04-14T01:10:14.881Z,37.80
2019-04-14T01:12:49.600Z,36.60
2019-04-14T01:15:22.284Z,35.40
2019-04-14T01:17:55.537Z,35.23
2019-04-14T01:20:30.109Z,37.63
2019-04-14T01:23:02.661Z,37.77
2019-04-14T01:25:35.394Z,38.53
2019-04-14T01:28:09.011Z,39.83
2019-04-14T01:30:43.706Z,40.33
2019-04-14T01:33:18.475Z,39.53
2019-04-14T01:35:53.074Z,40.10
2019-04-14T01:38:25.731Z,38.97
2019-04-14T01:40:59.910Z,41.07
2019-04-14T01:43:34.190Z,39.27
2019-04-14T01:46:14.758Z,42.83
2019-04-14T01:48:51.891Z,41.70
2019-04-14T01:51:35.986Z,44.50
2019-04-14T01:54:19.235Z,43.63
2019-04-14T01:57:13.210Z,43.00
2019-04-14T01:59:46.703Z,41.17
2019-04-14T02:02:22.683Z,41.40
2019-04-14T02:04:55.407Z,42.17
2019-04-14T02:07:29.748Z,40.93
2019-04-14T02:10:03.910Z,43.47
2019-04-14T02:12:36.624Z,43.50
2019-04-14T02:15:11.276Z,44.00
2019-04-14T02:17:46.107Z,44.80
2019-04-14T02:20:18.871Z,43.03
2019-04-14T02:22:51.567Z,46.10
2019-04-14T02:25:25.315Z,44.50
2019-04-14T02:28:00.128Z,43.63
2019-04-14T02:30:41.572Z,45.60
2019-04-14T02:33:44.459Z,44.83
2019-04-14T02:37:04.717Z,44.87
2019-04-14T02:40:33.386Z,46.17
2019-04-14T02:47:14.903Z,46.65
2019-04-14T02:50:38.613Z,45.97
2019-04-14T02:53:59.376Z,42.17
2019-04-14T03:00:23.907Z,42.53
2019-04-14T03:03:41.356Z,43.00
2019-04-14T03:06:50.161Z,40.50
2019-04-14T03:10:20.638Z,45.30
2019-04-14T03:13:28.828Z,41.57
2019-04-14T03:17:11.123Z,43.42
2019-04-14T03:20:47.517Z,41.33
2019-04-14T03:24:21.739Z,44.35
2019-04-14T03:27:41.890Z,39.40
2019-04-14T03:37:39.513Z,42.10
2019-04-14T03:40:54.219Z,39.10
2019-04-14T03:44:28.569Z,37.07
2019-04-14T03:47:56.259Z,40.47
2019-04-14T03:51:42.102Z,41.13
2019-04-14T03:54:44.120Z,42.47
2019-04-14T03:57:31.196Z,41.85
2019-04-14T04:00:09.501Z,41.23
2019-04-14T04:02:44.449Z,39.60
2019-04-14T04:05:17.385Z,39.50
2019-04-14T04:07:50.242Z,40.70
2019-04-14T04:10:27.061Z,42.03
2019-04-14T04:12:59.764Z,41.30
2019-04-14T04:15:34.264Z,40.60
2019-04-14T04:18:15.547Z,42.93
2019-04-14T04:20:54.486Z,40.30
2019-04-14T04:23:35.634Z,42.87
2019-04-14T04:26:17.422Z,40.67
2019-04-14T04:28:59.059Z,42.33
2019-04-14T04:31:37.487Z,43.33
2019-04-14T04:34:32.358Z,40.93
2019-04-14T04:37:13.102Z,42.20
2019-04-14T04:39:48.112Z,39.77
2019-04-14T04:42:20.471Z,41.17
2019-04-14T04:44:53.345Z,40.87
2019-04-14T04:47:25.842Z,41.50
2019-04-14T04:50:00.050Z,39.57
2019-04-14T04:52:36.528Z,40.07
2019-04-14T04:55:09.476Z,40.40
2019-04-14T04:57:46.015Z,41.37
2019-04-14T05:00:20.482Z,40.37
2019-04-14T05:02:53.601Z,38.90
2019-04-14T05:05:49.257Z,39.10
2019-04-14T05:08:24.061Z,39.00
2019-04-14T05:11:05.844Z,40.23
2019-04-14T05:13:40.250Z,38.73
2019-04-14T05:16:12.850Z,41.50
2019-04-14T05:18:46.819Z,40.63
2019-04-14T05:21:19.345Z,38.00
2019-04-14T05:23:51.858Z,38.27
2019-04-14T05:26:28.743Z,38.67
2019-04-14T05:29:03.492Z,39.17
2019-04-14T05:31:44.653Z,38.33
2019-04-14T05:34:21.568Z,36.90
2019-04-14T05:36:56.378Z,38.60
2019-04-14T05:39:29.101Z,36.57
2019-04-14T05:42:12.085Z,38.07
2019-04-14T05:44:51.518Z,38.60
2019-04-14T05:47:26.219Z,38.58
2019-04-14T05:49:59.423Z,36.87
2019-04-14T05:52:32.056Z,36.17
2019-04-14T05:55:06.625Z,36.30
2019-04-14T05:57:41.706Z,35.97
2019-04-14T06:00:19.068Z,35.53
2019-04-14T06:02:52.722Z,35.53
2019-04-14T06:05:28.242Z,35.73
2019-04-14T06:08:01.857Z,36.03
2019-04-14T06:10:34.887Z,38.22
2019-04-14T06:13:07.828Z,36.07
2019-04-14T06:15:41.020Z,35.30
2019-04-14T06:18:13.639Z,35.73
2019-04-14T06:20:46.611Z,36.73
2019-04-14T06:23:22.326Z,35.40
2019-04-14T06:25:54.790Z,33.40
2019-04-14T06:28:28.202Z,34.50
2019-04-14T06:31:12.461Z,34.50
2019-04-14T06:33:55.219Z,34.10
2019-04-14T06:36:33.507Z,34.93
2019-04-14T06:39:12.529Z,34.27
2019-04-14T06:41:45.094Z,34.23
2019-04-14T06:44:17.722Z,34.10
2019-04-14T06:46:51.046Z,35.00
2019-04-14T06:49:23.913Z,34.50
2019-04-14T06:51:56.467Z,33.27
2019-04-14T06:54:29.463Z,32.93
2019-04-14T06:57:14.285Z,32.60
2019-04-14T06:59:52.178Z,32.13
2019-04-14T07:02:26.580Z,32.93
2019-04-14T07:05:04.303Z,34.03
2019-04-14T07:07:37.027Z,33.47
2019-04-14T07:10:09.722Z,34.47
2019-04-14T07:12:43.546Z,33.73
2019-04-14T07:15:17.111Z,34.13
2019-04-14T07:17:49.842Z,32.93
2019-04-14T07:20:22.707Z,33.67
2019-04-14T07:22:55.299Z,35.60
2019-04-14T07:25:27.987Z,35.00
2019-04-14T07:28:00.775Z,32.97
2019-04-14T07:30:39.436Z,33.83
2019-04-14T07:33:27.659Z,32.83
2019-04-14T07:36:30.344Z,33.97
2019-04-14T07:39:11.715Z,32.07
2019-04-14T07:41:51.800Z,33.42
2019-04-14T07:44:46.161Z,32.70
2019-04-14T07:47:25.772Z,32.83
2019-04-14T07:50:18.350Z,32.30
2019-04-14T07:52:59.982Z,32.13
2019-04-14T07:55:40.291Z,29.33
2019-04-14T07:58:18.280Z,28.97
2019-04-14T08:01:10.210Z,29.17
2019-04-14T08:03:50.006Z,30.92
2019-04-14T08:06:23.543Z,27.97
2019-04-14T08:08:57.030Z,29.17
2019-04-14T08:11:29.643Z,27.33
2019-04-14T08:14:05.287Z,26.53
2019-04-14T08:16:38.659Z,26.33
2019-04-14T08:19:11.239Z,25.97
2019-04-14T08:21:44.457Z,26.80
2019-04-14T08:24:18.227Z,27.27
2019-04-14T08:26:50.937Z,25.40
2019-04-14T08:29:28.062Z,25.57
2019-04-14T08:32:04.259Z,25.40
2019-04-14T08:34:36.834Z,27.27
2019-04-14T08:37:13.798Z,24.37
2019-04-14T08:39:48.414Z,24.80
2019-04-14T08:42:52.699Z,24.40
2019-04-14T08:45:56.639Z,23.70
2019-04-14T08:49:01.965Z,25.52
2019-04-14T08:52:02.769Z,24.83
2019-04-14T08:54:46.843Z,22.03
2019-04-14T08:57:43.035Z,22.60
2019-04-14T09:00:27.877Z,22.80
2019-04-14T09:03:22.114Z,20.87
2019-04-14T09:06:05.385Z,20.10
2019-04-14T09:08:45.150Z,20.85
2019-04-14T09:11:32.837Z,19.07
2019-04-14T09:14:06.479Z,20.37
2019-04-14T09:16:39.620Z,19.45
2019-04-14T09:19:17.595Z,19.10
2019-04-14T09:21:52.134Z,18.00
2019-04-14T09:24:25.696Z,17.03
2019-04-14T09:27:02.128Z,16.70
2019-04-14T09:29:35.034Z,15.70
2019-04-14T09:32:12.951Z,16.90
2019-04-14T09:34:46.755Z,15.43
2019-04-14T09:37:20.848Z,15.87
2019-04-14T09:39:54.932Z,15.50
2019-04-14T09:42:27.585Z,15.77
2019-04-14T09:45:02.557Z,15.27
2019-04-14T09:47:36.037Z,15.83
2019-04-14T09:50:09.340Z,13.27
2019-04-14T09:52:42.164Z,13.13
2019-04-14T09:55:17.475Z,13.37
2019-04-14T09:57:51.086Z,14.70
2019-04-14T10:00:23.844Z,13.90
2019-04-14T10:02:57.331Z,14.20
2019-04-14T10:05:30.931Z,14.13
2019-04-14T10:08:07.046Z,14.93
2019-04-14T10:10:41.977Z,15.70
2019-04-14T10:13:15.065Z,13.63
2019-04-14T10:15:48.283Z,14.47
2019-04-14T10:18:22.162Z,14.67
2019-04-14T10:20:54.710Z,13.83
2019-04-14T10:23:29.054Z,14.53
2019-04-14T10:26:01.915Z,14.23
2019-04-14T10:28:34.534Z,14.07
2019-04-14T10:31:07.134Z,13.93
2019-04-14T10:33:40.813Z,14.23
2019-04-14T10:36:13.403Z,13.30
2019-04-14T10:38:47.011Z,13.23
2019-04-14T10:41:19.975Z,12.60
2019-04-14T10:43:53.594Z,14.03
2019-04-14T10:46:27.046Z,13.00
2019-04-14T10:49:00.153Z,12.93
2019-04-14T10:51:37.587Z,12.07
2019-04-14T10:54:10.615Z,12.67
2019-04-14T10:56:43.686Z,11.43
2019-04-14T10:59:18.973Z,13.18
2019-04-14T11:01:52.137Z,11.90
2019-04-14T11:04:26.369Z,11.97
2019-04-14T11:07:07.068Z,11.73
2019-04-14T11:09:43.240Z,12.97
2019-04-14T11:12:19.971Z,11.30
2019-04-14T11:14:52.686Z,12.17
2019-04-14T11:17:26.304Z,11.77
2019-04-14T11:20:01.991Z,11.70
2019-04-14T11:22:37.061Z,11.33
2019-04-14T11:25:09.711Z,11.70
2019-04-14T11:27:43.269Z,11.50
2019-04-14T11:30:19.964Z,11.60
2019-04-14T11:33:04.514Z,12.10
2019-04-14T11:35:49.655Z,11.03
2019-04-14T11:38:36.041Z,12.07
2019-04-14T11:41:19.352Z,11.97
2019-04-14T11:43:52.864Z,11.60
2019-04-14T11:46:27.664Z,12.50
2019-04-14T11:49:02.752Z,11.90
2019-04-14T11:51:37.631Z,13.10
2019-04-14T11:54:13.624Z,11.93
2019-04-14T11:56:46.838Z,12.40
2019-04-14T11:59:31.124Z,12.30
2019-04-14T12:02:19.610Z,13.73
2019-04-14T12:05:07.137Z,12.90
2019-04-14T12:07:50.080Z,13.10
2019-04-14T12:10:26.616Z,12.20
2019-04-14T12:13:07.256Z,11.90
2019-04-14T12:15:47.414Z,12.90
2019-04-14T12:18:27.532Z,13.07
2019-04-14T12:21:00.153Z,13.10
2019-04-14T12:23:39.045Z,12.63
2019-04-14T12:26:14.652Z,12.17
2019-04-14T12:28:49.349Z,11.83
2019-04-14T12:31:24.103Z,12.43
2019-04-14T12:34:11.724Z,12.67
2019-04-14T12:36:51.418Z,12.67
2019-04-14T12:39:30.064Z,12.37
2019-04-14T12:42:38.002Z,11.67
2019-04-14T12:45:21.312Z,12.67
2019-04-14T12:48:02.196Z,13.57
2019-04-14T12:50:46.190Z,12.50
2019-04-14T12:53:19.216Z,11.63
2019-04-14T12:55:53.845Z,12.67
2019-04-14T12:58:38.928Z,11.60
2019-04-14T13:01:13.082Z,13.20
2019-04-14T13:03:46.202Z,12.40
2019-04-14T13:06:20.467Z,12.53
2019-04-14T13:08:53.676Z,13.20
2019-04-14T13:11:32.163Z,12.93
2019-04-14T13:14:11.912Z,13.73
2019-04-14T13:16:48.842Z,13.80
2019-04-14T13:19:30.426Z,12.60
2019-04-14T13:22:03.155Z,12.40
2019-04-14T13:24:40.659Z,13.30
2019-04-14T13:27:14.370Z,12.53
2019-04-14T13:29:55.495Z,13.37
2019-04-14T13:32:35.987Z,13.10
2019-04-14T13:35:10.744Z,13.27
2019-04-14T13:37:47.834Z,13.90
2019-04-14T13:40:21.899Z,13.82
2019-04-14T13:42:54.437Z,12.63
2019-04-14T13:45:35.822Z,14.30
2019-04-14T13:48:34.477Z,14.68
2019-04-14T13:51:15.934Z,13.47
2019-04-14T13:53:51.091Z,13.07
2019-04-14T13:56:25.294Z,12.97
2019-04-14T13:58:59.929Z,13.20
2019-04-14T14:01:34.560Z,13.17
2019-04-14T14:04:08.919Z,14.87
2019-04-14T14:06:41.768Z,14.13
2019-04-14T14:09:14.790Z,13.10
2019-04-14T14:12:00.736Z,13.30
2019-04-14T14:14:50.835Z,14.27
2019-04-14T14:17:39.841Z,13.60
2019-04-14T14:20:27.262Z,13.23
2019-04-14T14:23:31.836Z,14.18
2019-04-14T14:26:30.750Z,13.73
2019-04-14T14:29:05.870Z,13.57
2019-04-14T14:31:39.606Z,12.93
2019-04-14T14:34:20.545Z,12.73
2019-04-14T14:36:55.544Z,12.53
2019-04-14T14:39:35.547Z,13.35
2019-04-14T14:42:12.438Z,12.17
2019-04-14T14:45:19.683Z,11.80
2019-04-14T14:48:11.133Z,11.97
2019-04-14T14:50:52.449Z,11.50
2019-04-14T14:53:34.026Z,12.20
2019-04-14T14:56:30.445Z,12.57
2019-04-14T14:59:03.656Z,11.73
2019-04-14T15:01:39.228Z,12.30
2019-04-14T15:04:15.772Z,13.05
2019-04-14T15:06:50.115Z,12.43
2019-04-14T15:09:26.609Z,11.50
2019-04-14T15:12:00.988Z,11.70
2019-04-14T15:14:36.425Z,11.70
2019-04-14T15:17:15.766Z,11.40
2019-04-14T15:19:50.692Z,13.23
2019-04-14T15:22:24.169Z,11.10
2019-04-14T15:24:59.193Z,11.50
2019-04-14T15:27:36.670Z,12.00
2019-04-14T15:30:15.898Z,11.50
2019-04-14T15:32:55.070Z,10.50
2019-04-14T15:35:30.199Z,10.27
2019-04-14T15:38:06.034Z,10.87
2019-04-14T15:40:39.120Z,11.03
2019-04-14T15:43:15.808Z,11.17
2019-04-14T15:45:54.289Z,11.77
2019-04-14T15:48:39.636Z,11.80
2019-04-14T15:51:33.360Z,11.47
2019-04-14T15:54:11.629Z,12.03
2019-04-14T15:56:53.242Z,12.43
2019-04-14T15:59:40.919Z,10.13
2019-04-14T16:02:39.456Z,11.33
2019-04-14T16:05:35.642Z,11.63
2019-04-14T16:08:24.755Z,11.98
2019-04-14T16:11:03.515Z,11.20
2019-04-14T16:13:45.662Z,11.37
2019-04-14T16:16:41.452Z,11.33
2019-04-14T16:19:27.295Z,11.97
2019-04-14T16:22:01.646Z,10.90
2019-04-14T16:24:56.665Z,11.67
2019-04-14T16:27:39.605Z,13.07
2019-04-14T16:30:29.190Z,14.73
2019-04-14T16:33:10.856Z,14.50
2019-04-14T16:35:46.742Z,15.63
2019-04-14T16:38:21.245Z,14.77
2019-04-14T16:40:55.878Z,14.80
2019-04-14T16:43:29.379Z,15.20
2019-04-14T16:46:02.719Z,13.93
2019-04-14T16:48:44.546Z,14.40
2019-04-14T16:51:24.117Z,13.47
2019-04-14T16:54:03.325Z,13.53
2019-04-14T16:56:50.280Z,14.27
2019-04-14T16:59:22.977Z,14.23
2019-04-14T17:02:10.170Z,12.93
2019-04-14T17:04:45.540Z,13.90
2019-04-14T17:07:19.837Z,13.43
2019-04-14T17:09:53.724Z,12.77
2019-04-14T17:12:27.073Z,14.13
2019-04-14T17:15:15.957Z,13.40
2019-04-14T17:17:56.550Z,12.70
2019-04-14T17:20:37.259Z,12.80
2019-04-14T17:23:30.986Z,12.53
2019-04-14T17:26:09.781Z,13.07
2019-04-14T17:29:02.599Z,13.17
2019-04-14T17:31:56.347Z,12.87
2019-04-14T17:35:03.038Z,13.20
2019-04-14T17:38:00.648Z,13.77
2019-04-14T17:40:54.509Z,11.17
2019-04-14T17:43:35.610Z,11.97
2019-04-14T17:46:29.060Z,11.83
2019-04-14T17:49:18.656Z,11.73
2019-04-14T17:52:14.991Z,12.57
2019-04-14T17:54:54.076Z,11.33
2019-04-14T17:57:48.456Z,11.87
2019-04-14T18:00:43.932Z,12.80
2019-04-14T18:03:27.505Z,11.50
2019-04-14T18:06:08.842Z,10.77
2019-04-14T18:09:00.797Z,11.97
2019-04-14T18:11:56.703Z,11.57
2019-04-14T18:14:45.625Z,12.90
2019-04-14T18:17:28.511Z,11.30
2019-04-14T18:20:09.450Z,12.30
2019-04-14T18:22:42.050Z,13.02
2019-04-14T18:25:18.187Z,13.20
2019-04-14T18:28:10.329Z,11.97
2019-04-14T18:31:01.377Z,13.50
2019-04-14T18:33:42.448Z,13.70
2019-04-14T18:36:34.450Z,13.07
2019-04-14T18:39:34.567Z,13.45
2019-04-14T18:42:28.164Z,12.63
2019-04-14T18:45:20.895Z,13.18
2019-04-14T18:48:03.366Z,12.40
2019-04-14T18:50:42.957Z,12.60
2019-04-14T18:53:24.836Z,13.20
2019-04-14T18:56:11.560Z,12.57
2019-04-14T18:58:58.081Z,13.13
2019-04-14T19:01:38.219Z,13.80
2019-04-14T19:04:10.833Z,13.45
2019-04-14T19:06:43.797Z,12.60
2019-04-14T19:09:18.393Z,12.33
2019-04-14T19:12:13.294Z,11.93
2019-04-14T19:15:06.765Z,13.05
2019-04-14T19:17:49.779Z,12.23
2019-04-14T19:20:31.686Z,12.37
2019-04-14T19:23:06.148Z,12.37
2019-04-14T19:25:39.452Z,12.57
2019-04-14T19:28:12.375Z,12.60
2019-04-14T19:30:45.354Z,13.62
2019-04-14T19:33:18.361Z,12.83
2019-04-14T19:35:55.332Z,13.00
2019-04-14T19:38:31.505Z,14.00
2019-04-14T19:41:05.452Z,12.80
2019-04-14T19:43:46.486Z,14.70
2019-04-14T19:46:20.636Z,14.02
2019-04-14T19:48:54.800Z,13.93
2019-04-14T19:51:34.347Z,13.27
2019-04-14T19:54:08.381Z,13.20
2019-04-14T19:56:42.664Z,12.57
2019-04-14T19:59:21.203Z,13.23
2019-04-14T20:01:57.943Z,12.83
2019-04-14T20:04:34.954Z,12.87
2019-04-14T20:07:08.078Z,12.00
2019-04-14T20:09:41.284Z,12.83
2019-04-14T20:12:14.922Z,12.93
2019-04-14T20:14:47.807Z,12.00
2019-04-14T20:17:40.873Z,12.50
2019-04-14T20:20:24.454Z,13.23
2019-04-14T20:23:19.003Z,11.90
2019-04-14T20:26:24.692Z,12.80
2019-04-14T20:29:05.092Z,12.00
2019-04-14T20:31:51.867Z,11.93
2019-04-14T20:34:25.429Z,11.77
2019-04-14T20:36:59.252Z,11.47
2019-04-14T20:39:33.529Z,10.73
2019-04-14T20:42:07.375Z,10.20
2019-04-14T20:44:40.387Z,9.27
2019-04-14T20:47:13.128Z,9.03
2019-04-14T20:49:45.800Z,9.10
2019-04-14T20:52:18.772Z,8.93
2019-04-14T20:54:51.523Z,8.40
2019-04-14T20:57:24.146Z,9.50
2019-04-14T21:00:01.120Z,9.40
2019-04-14T21:02:56.158Z,9.37
2019-04-14T21:05:52.829Z,9.97
2019-04-14T21:08:55.183Z,9.80
2019-04-14T21:11:35.351Z,9.73
2019-04-14T21:14:17.492Z,9.63
2019-04-14T21:17:03.482Z,9.03
2019-04-14T21:19:47.565Z,9.40
2019-04-14T21:22:34.791Z,8.83
2019-04-14T21:25:28.044Z,9.40
2019-04-14T21:28:28.068Z,8.80
2019-04-14T21:31:08.633Z,8.87
2019-04-14T21:33:56.512Z,8.93
2019-04-14T21:36:37.342Z,8.53
2019-04-14T21:39:31.833Z,8.90
2019-04-14T21:42:19.567Z,8.40
2019-04-14T21:44:53.915Z,7.90
2019-04-14T21:47:30.970Z,8.70
2019-04-14T21:50:07.390Z,8.53
2019-04-14T21:52:43.691Z,7.50
2019-04-14T21:55:22.040Z,7.90
2019-04-14T21:58:03.834Z,8.65
2019-04-14T22:01:40.815Z,7.97
2019-04-14T22:04:32.031Z,8.63
2019-04-14T22:07:19.863Z,8.63
2019-04-14T22:09:56.750Z,9.10
2019-04-14T22:12:35.742Z,9.67
2019-04-14T22:15:08.543Z,9.57
2019-04-14T22:17:45.365Z,9.90
2019-04-14T22:20:17.966Z,9.33
2019-04-14T22:22:50.672Z,9.13
2019-04-14T22:25:24.213Z,9.37
2019-04-14T22:27:56.926Z,11.35
2019-04-14T22:30:29.836Z,10.53
2019-04-14T22:33:03.703Z,9.73
2019-04-14T22:35:37.682Z,9.60
2019-04-14T22:38:10.766Z,10.30
2019-04-14T22:40:43.721Z,11.23
2019-04-14T22:43:17.715Z,10.80
2019-04-14T22:45:50.434Z,11.43
2019-04-14T22:48:23.291Z,11.10
2019-04-14T22:50:55.963Z,11.43
2019-04-14T22:53:29.187Z,11.75
2019-04-14T22:56:02.299Z,12.07
2019-04-14T22:58:34.819Z,11.13
2019-04-14T23:01:19.266Z,12.30
2019-04-14T23:04:12.483Z,11.23
2019-04-14T23:07:06.155Z,12.48
2019-04-14T23:09:53.418Z,11.87
2019-04-14T23:12:31.562Z,11.97
2019-04-14T23:15:25.739Z,11.83
2019-04-14T23:18:22.828Z,13.05
2019-04-14T23:21:16.887Z,12.63
2019-04-14T23:24:10.746Z,13.00
2019-04-14T23:26:52.385Z,12.30
2019-04-14T23:29:25.873Z,13.25
2019-04-14T23:31:58.783Z,12.30
2019-04-14T23:34:31.997Z,12.13
2019-04-14T23:37:05.407Z,11.70
2019-04-14T23:39:38.264Z,12.23
2019-04-14T23:42:10.853Z,12.88
2019-04-14T23:44:46.600Z,11.63
2019-04-14T23:47:19.422Z,11.97
2019-04-14T23:49:52.011Z,11.70
2019-04-14T23:52:25.973Z,12.30
2019-04-14T23:54:59.020Z,11.97
2019-04-14T23:57:32.003Z,11.67
